createdAt,value
2019-02-06T00:00:42.096Z,101628.73
2019-02-06T00:03:12.035Z,101629.00
2019-02-06T00:05:40.284Z,101621.31
2019-02-06T00:08:08.590Z,101618.59
2019-02-06T00:10:36.843Z,101614.92
2019-02-06T00:13:05.115Z,101616.61
2019-02-06T00:15:33.400Z,101612.52
2019-02-06T00:18:01.663Z,101615.52
2019-02-06T00:20:30.484Z,101610.13
2019-02-06T00:22:58.758Z,101604.40
2019-02-06T00:25:27.121Z,101607.43
2019-02-06T00:27:55.444Z,101602.57
2019-02-06T00:30:25.163Z,101589.89
2019-02-06T00:32:53.550Z,101588.42
2019-02-06T00:35:25.918Z,101587.53
2019-02-06T00:37:52.170Z,101583.06
2019-02-06T00:40:20.530Z,101584.35
2019-02-06T00:42:48.821Z,101580.75
2019-02-06T00:45:17.260Z,101579.37
2019-02-06T00:47:45.511Z,101576.28
2019-02-06T00:50:17.128Z,101583.40
2019-02-06T00:52:45.396Z,101587.02
2019-02-06T00:55:14.846Z,101583.20
2019-02-06T00:57:43.090Z,101576.25
2019-02-06T01:00:19.205Z,101574.17
2019-02-06T01:02:47.557Z,101577.80
2019-02-06T01:05:16.812Z,101565.63
2019-02-06T01:07:45.166Z,101573.19
2019-02-06T01:10:19.097Z,101562.31
2019-02-06T01:12:47.376Z,101564.61
2019-02-06T01:15:15.665Z,101559.02
2019-02-06T01:17:43.923Z,101561.31
2019-02-06T01:20:16.845Z,101571.45
2019-02-06T01:22:45.094Z,101567.17
2019-02-06T01:25:15.385Z,101560.73
2019-02-06T01:27:43.664Z,101558.17
2019-02-06T01:30:18.804Z,101562.92
2019-02-06T01:32:47.070Z,101558.83
2019-02-06T01:35:15.821Z,101561.00
2019-02-06T01:37:44.070Z,101565.27
2019-02-06T01:40:17.665Z,101556.26
2019-02-06T01:42:45.918Z,101557.86
2019-02-06T01:45:18.177Z,101557.76
2019-02-06T01:47:46.461Z,101555.34
2019-02-06T01:50:17.061Z,101555.98
2019-02-06T01:52:45.352Z,101557.95
2019-02-06T01:55:14.932Z,101546.31
2019-02-06T01:57:43.228Z,101543.58
2019-02-06T02:00:22.691Z,101536.38
2019-02-06T02:02:51.101Z,101531.87
2019-02-06T02:05:21.006Z,101532.26
2019-02-06T02:07:50.169Z,101526.59
2019-02-06T02:10:19.615Z,101530.55
2019-02-06T02:12:48.205Z,101524.84
2019-02-06T02:15:17.900Z,101515.23
2019-02-06T02:17:46.157Z,101517.06
2019-02-06T02:20:25.536Z,101510.09
2019-02-06T02:22:54.243Z,101511.95
2019-02-06T02:25:22.550Z,101518.67
2019-02-06T02:27:51.026Z,101507.38
2019-02-06T02:30:35.898Z,101501.82
2019-02-06T02:33:04.271Z,101504.16
2019-02-06T02:35:32.520Z,101498.09
2019-02-06T02:38:00.775Z,101497.22
2019-02-06T02:40:29.079Z,101491.57
2019-02-06T02:42:57.321Z,101487.33
2019-02-06T02:45:25.868Z,101489.25
2019-02-06T02:47:54.173Z,101491.19
2019-02-06T02:50:22.592Z,101479.08
2019-02-06T02:52:51.210Z,101473.17
2019-02-06T02:55:19.509Z,101466.86
2019-02-06T02:57:47.756Z,101463.94
2019-02-06T03:00:26.647Z,101459.61
2019-02-06T03:02:58.992Z,101461.38
2019-02-06T03:05:29.139Z,101454.34
2019-02-06T03:07:57.416Z,101456.98
2019-02-06T03:10:25.676Z,101457.05
2019-02-06T03:12:53.956Z,101447.38
2019-02-06T03:15:22.693Z,101443.56
2019-02-06T03:17:50.953Z,101441.91
2019-02-06T03:20:19.260Z,101438.95
2019-02-06T03:22:47.507Z,101429.82
2019-02-06T03:25:15.764Z,101430.41
2019-02-06T03:27:44.074Z,101424.31
2019-02-06T03:30:15.254Z,101421.39
2019-02-06T03:32:43.778Z,101427.19
2019-02-06T03:35:12.026Z,101423.39
2019-02-06T03:37:40.343Z,101417.80
2019-02-06T03:40:14.065Z,101411.78
2019-02-06T03:42:42.316Z,101410.99
2019-02-06T03:45:12.103Z,101408.06
2019-02-06T03:47:40.517Z,101399.73
2019-02-06T03:50:14.823Z,101395.33
2019-02-06T03:52:43.073Z,101391.66
2019-02-06T03:55:12.199Z,101386.28
2019-02-06T03:57:40.452Z,101384.91
2019-02-06T04:00:14.802Z,101383.52
2019-02-06T04:02:43.116Z,101376.34
2019-02-06T04:05:12.104Z,101373.17
2019-02-06T04:07:40.374Z,101385.33
2019-02-06T04:10:16.734Z,101378.14
2019-02-06T04:12:45.016Z,101375.73
2019-02-06T04:15:13.695Z,101368.66
2019-02-06T04:17:41.961Z,101368.52
2019-02-06T04:20:14.392Z,101360.54
2019-02-06T04:22:42.664Z,101360.54
2019-02-06T04:25:13.548Z,101364.11
2019-02-06T04:27:42.087Z,101351.13
2019-02-06T04:30:16.249Z,101349.38
2019-02-06T04:32:44.503Z,101355.30
2019-02-06T04:35:13.700Z,101356.91
2019-02-06T04:37:42.004Z,101357.70
2019-02-06T04:40:13.158Z,101356.28
2019-02-06T04:42:41.403Z,101355.41
2019-02-06T04:45:11.900Z,101360.30
2019-02-06T04:47:40.141Z,101349.77
2019-02-06T04:50:11.141Z,101358.56
2019-02-06T04:52:39.415Z,101354.52
2019-02-06T04:55:10.176Z,101354.88
2019-02-06T04:57:38.456Z,101349.05
2019-02-06T05:00:24.968Z,101350.40
2019-02-06T05:02:53.228Z,101351.78
2019-02-06T05:05:21.553Z,101356.73
2019-02-06T05:07:49.893Z,101350.73
2019-02-06T05:10:18.214Z,101343.41
2019-02-06T05:12:46.783Z,101342.27
2019-02-06T05:15:16.368Z,101341.63
2019-02-06T05:17:44.737Z,101333.44
2019-02-06T05:20:22.287Z,101330.08
2019-02-06T05:22:50.609Z,101328.42
2019-02-06T05:25:18.923Z,101323.66
2019-02-06T05:27:47.698Z,101321.47
2019-02-06T05:30:16.095Z,101319.78
2019-02-06T05:32:44.467Z,101320.29
2019-02-06T05:35:12.694Z,101316.78
2019-02-06T05:37:40.992Z,101320.38
2019-02-06T05:40:10.960Z,101320.02
2019-02-06T05:42:39.370Z,101320.44
2019-02-06T05:45:09.593Z,101316.64
2019-02-06T05:47:37.969Z,101312.59
2019-02-06T05:50:09.731Z,101309.62
2019-02-06T05:52:38.055Z,101313.86
2019-02-06T05:55:07.248Z,101300.66
2019-02-06T05:57:35.524Z,101299.48
2019-02-06T06:00:10.354Z,101307.14
2019-02-06T06:02:38.633Z,101303.90
2019-02-06T06:05:06.872Z,101299.76
2019-02-06T06:07:44.572Z,101299.99
2019-02-06T06:10:08.400Z,101302.05
2019-02-06T06:12:36.650Z,101300.18
2019-02-06T06:15:06.974Z,101295.16
2019-02-06T06:17:35.227Z,101287.50
2019-02-06T06:20:03.726Z,101292.99
2019-02-06T06:22:32.107Z,101299.30
2019-02-06T06:25:00.979Z,101288.10
2019-02-06T06:27:29.314Z,101284.66
2019-02-06T06:29:57.583Z,101285.60
2019-02-06T06:32:26.137Z,101281.67
2019-02-06T06:34:54.381Z,101282.13
2019-02-06T06:37:22.751Z,101273.83
2019-02-06T06:39:51.011Z,101275.08
2019-02-06T06:42:19.268Z,101270.18
2019-02-06T06:44:47.545Z,101274.92
2019-02-06T06:47:15.868Z,101272.52
2019-02-06T06:49:44.152Z,101279.44
2019-02-06T06:52:12.407Z,101278.86
2019-02-06T06:54:40.687Z,101279.47
2019-02-06T06:57:09.032Z,101281.89
2019-02-06T06:59:37.325Z,101279.97
2019-02-06T07:02:05.586Z,101282.55
2019-02-06T07:04:34.255Z,101270.23
2019-02-06T07:07:02.947Z,101270.14
2019-02-06T07:09:31.229Z,101270.14
2019-02-06T07:11:59.542Z,101272.34
2019-02-06T07:14:27.827Z,101269.61
2019-02-06T07:16:56.091Z,101266.02
2019-02-06T07:19:24.339Z,101265.06
2019-02-06T07:21:53.057Z,101273.75
2019-02-06T07:24:21.325Z,101268.84
2019-02-06T07:26:49.656Z,101266.56
2019-02-06T07:29:18.024Z,101263.77
2019-02-06T07:31:46.282Z,101267.91
2019-02-06T07:34:14.539Z,101255.76
2019-02-06T07:36:42.803Z,101262.44
2019-02-06T07:39:11.063Z,101262.45
2019-02-06T07:41:39.327Z,101268.59
2019-02-06T07:44:07.610Z,101266.89
2019-02-06T07:46:36.039Z,101257.66
2019-02-06T07:49:04.493Z,101258.13
2019-02-06T07:51:32.745Z,101252.92
2019-02-06T07:54:01.016Z,101256.58
2019-02-06T07:56:29.269Z,101254.91
2019-02-06T07:58:57.568Z,101253.38
2019-02-06T08:01:25.819Z,101255.25
2019-02-06T08:03:54.132Z,101250.92
2019-02-06T08:06:22.470Z,101250.60
2019-02-06T08:08:50.714Z,101245.44
2019-02-06T08:11:18.974Z,101250.32
2019-02-06T08:13:47.258Z,101248.13
2019-02-06T08:16:15.676Z,101249.00
2019-02-06T08:18:43.981Z,101252.55
2019-02-06T08:21:12.234Z,101257.34
2019-02-06T08:23:40.506Z,101251.70
2019-02-06T08:26:08.887Z,101246.42
2019-02-06T08:28:37.449Z,101248.70
2019-02-06T08:31:05.705Z,101250.20
2019-02-06T08:33:34.075Z,101237.54
2019-02-06T08:36:02.323Z,101239.08
2019-02-06T08:38:30.627Z,101242.27
2019-02-06T08:40:58.881Z,101245.91
2019-02-06T08:43:27.138Z,101246.98
2019-02-06T08:45:55.429Z,101253.81
2019-02-06T08:48:23.874Z,101253.56
2019-02-06T08:50:52.262Z,101258.99
2019-02-06T08:53:20.591Z,101257.48
2019-02-06T08:55:48.853Z,101257.28
2019-02-06T08:58:17.108Z,101250.06
2019-02-06T09:00:45.601Z,101249.06
2019-02-06T09:03:13.889Z,101255.11
2019-02-06T09:05:42.173Z,101251.83
2019-02-06T09:08:10.558Z,101250.37
2019-02-06T09:10:38.873Z,101251.98
2019-02-06T09:13:07.301Z,101256.69
2019-02-06T09:15:35.829Z,101255.61
2019-02-06T09:18:04.752Z,101259.91
2019-02-06T09:20:33.611Z,101259.38
2019-02-06T09:23:01.924Z,101269.81
2019-02-06T09:25:30.400Z,101270.13
2019-02-06T09:27:58.667Z,101269.91
2019-02-06T09:30:36.167Z,101265.34
2019-02-06T09:33:05.008Z,101258.80
2019-02-06T09:35:33.479Z,101261.65
2019-02-06T09:38:01.773Z,101259.59
2019-02-06T09:40:31.369Z,101261.42
2019-02-06T09:42:59.758Z,101262.47
2019-02-06T09:45:28.024Z,101267.33
2019-02-06T09:47:56.355Z,101263.39
2019-02-06T09:50:30.128Z,101258.97
2019-02-06T09:52:58.467Z,101259.01
2019-02-06T09:55:26.820Z,101260.05
2019-02-06T09:57:55.060Z,101261.55
2019-02-06T10:00:32.154Z,101260.54
2019-02-06T10:03:01.056Z,101262.19
2019-02-06T10:05:29.540Z,101262.50
2019-02-06T10:07:57.900Z,101264.92
2019-02-06T10:10:27.291Z,101262.98
2019-02-06T10:12:55.577Z,101258.30
2019-02-06T10:15:31.995Z,101261.12
2019-02-06T10:18:00.792Z,101259.41
2019-02-06T10:20:35.038Z,101261.20
2019-02-06T10:23:03.293Z,101258.66
2019-02-06T10:25:31.592Z,101257.83
2019-02-06T10:28:00.105Z,101262.13
2019-02-06T10:30:37.641Z,101261.58
2019-02-06T10:33:05.943Z,101256.09
2019-02-06T10:35:34.193Z,101251.38
2019-02-06T10:38:02.448Z,101249.41
2019-02-06T10:40:30.929Z,101251.33
2019-02-06T10:42:59.476Z,101250.28
2019-02-06T10:45:27.803Z,101250.16
2019-02-06T10:47:56.453Z,101243.23
2019-02-06T10:50:27.628Z,101255.42
2019-02-06T10:52:55.942Z,101247.23
2019-02-06T10:55:24.185Z,101244.03
2019-02-06T10:57:52.496Z,101243.06
2019-02-06T11:00:32.883Z,101240.33
2019-02-06T11:03:01.194Z,101227.77
2019-02-06T11:05:29.742Z,101226.73
2019-02-06T11:07:58.064Z,101220.30
2019-02-06T11:10:27.804Z,101213.28
2019-02-06T11:12:56.036Z,101223.58
2019-02-06T11:15:24.534Z,101219.23
2019-02-06T11:17:53.167Z,101211.45
2019-02-06T11:20:24.248Z,101211.35
2019-02-06T11:22:52.505Z,101206.31
2019-02-06T11:25:20.787Z,101204.41
2019-02-06T11:27:49.050Z,101206.53
2019-02-06T11:30:28.753Z,101201.38
2019-02-06T11:32:57.079Z,101201.14
2019-02-06T11:35:25.534Z,101198.48
2019-02-06T11:37:53.921Z,101189.15
2019-02-06T11:40:24.117Z,101182.13
2019-02-06T11:42:53.197Z,101179.84
2019-02-06T11:45:23.927Z,101176.42
2019-02-06T11:47:52.184Z,101177.79
2019-02-06T11:50:23.367Z,101173.70
2019-02-06T11:52:52.664Z,101172.83
2019-02-06T11:55:29.501Z,101168.45
2019-02-06T11:57:57.974Z,101165.41
2019-02-06T12:00:39.981Z,101168.38
2019-02-06T12:03:08.324Z,101154.08
2019-02-06T12:05:36.602Z,101157.50
2019-02-06T12:08:04.922Z,101155.62
2019-02-06T12:10:34.109Z,101159.16
2019-02-06T12:13:03.112Z,101161.72
2019-02-06T12:15:31.439Z,101160.30
2019-02-06T12:17:59.858Z,101159.25
2019-02-06T12:20:28.098Z,101158.59
2019-02-06T12:22:56.383Z,101151.91
2019-02-06T12:25:24.779Z,101146.84
2019-02-06T12:27:55.669Z,101145.52
2019-02-06T12:30:35.852Z,101149.33
2019-02-06T12:33:04.563Z,101153.34
2019-02-06T12:35:32.858Z,101143.59
2019-02-06T12:38:01.291Z,101134.27
2019-02-06T12:40:29.844Z,101129.19
2019-02-06T12:42:58.081Z,101128.72
2019-02-06T12:45:26.382Z,101123.48
2019-02-06T12:47:55.003Z,101126.98
2019-02-06T12:50:24.513Z,101118.89
2019-02-06T12:52:52.764Z,101128.32
2019-02-06T12:55:35.911Z,101113.54
2019-02-06T12:58:04.497Z,101120.59
2019-02-06T13:00:35.875Z,101120.86
2019-02-06T13:03:04.198Z,101115.91
2019-02-06T13:05:32.776Z,101111.44
2019-02-06T13:08:01.301Z,101106.09
2019-02-06T13:10:33.841Z,101104.56
2019-02-06T13:12:59.627Z,101099.12
2019-02-06T13:15:27.895Z,101084.34
2019-02-06T13:17:56.329Z,101078.16
2019-02-06T13:20:35.433Z,101073.38
2019-02-06T13:23:04.282Z,101076.12
2019-02-06T13:25:32.676Z,101067.72
2019-02-06T13:28:01.006Z,101071.03
2019-02-06T13:30:37.788Z,101055.75
2019-02-06T13:33:07.523Z,101058.38
2019-02-06T13:35:36.548Z,101060.19
2019-02-06T13:38:05.007Z,101048.98
2019-02-06T13:40:44.821Z,101050.66
2019-02-06T13:43:03.681Z,101044.44
2019-02-06T13:45:35.051Z,101040.96
2019-02-06T13:48:03.294Z,101042.76
2019-02-06T13:50:31.571Z,101037.47
2019-02-06T13:52:59.858Z,101038.22
2019-02-06T13:55:28.127Z,101035.42
2019-02-06T13:57:56.401Z,101022.61
2019-02-06T14:00:30.668Z,101030.91
2019-02-06T14:02:58.990Z,101040.16
2019-02-06T14:05:28.780Z,101031.80
2019-02-06T14:07:59.440Z,101028.59
2019-02-06T14:10:29.663Z,101030.13
2019-02-06T14:12:57.907Z,101025.45
2019-02-06T14:15:38.012Z,101018.69
2019-02-06T14:18:06.263Z,101024.51
2019-02-06T14:20:34.540Z,101020.77
2019-02-06T14:23:21.699Z,101015.03
2019-02-06T14:26:01.784Z,101009.20
2019-02-06T14:28:51.391Z,101004.59
2019-02-06T14:31:25.579Z,101002.64
2019-02-06T14:33:54.823Z,101002.28
2019-02-06T14:36:44.337Z,100991.64
2019-02-06T14:39:15.849Z,100993.87
2019-02-06T14:41:47.737Z,100988.84
2019-02-06T14:44:52.830Z,100979.90
2019-02-06T14:47:30.146Z,100979.90
2019-02-06T14:50:10.406Z,100979.24
2019-02-06T14:52:44.514Z,100983.64
2019-02-06T14:55:24.943Z,100983.64
2019-02-06T14:57:56.479Z,100974.28
2019-02-06T15:00:59.439Z,100970.18
2019-02-06T15:03:50.908Z,100968.34
2019-02-06T15:06:28.001Z,100972.08
2019-02-06T15:09:16.127Z,100962.24
2019-02-06T15:11:59.183Z,100959.56
2019-02-06T15:14:30.700Z,100963.79
2019-02-06T15:17:30.903Z,100960.38
2019-02-06T15:20:28.036Z,100961.80
2019-02-06T15:23:18.075Z,100959.63
2019-02-06T15:25:55.431Z,100947.59
2019-02-06T15:28:52.380Z,100951.22
2019-02-06T15:31:35.425Z,100943.46
2019-02-06T15:34:26.716Z,100945.27
2019-02-06T15:37:09.967Z,100945.27
2019-02-06T15:39:50.132Z,100935.91
2019-02-06T15:42:36.501Z,100934.58
2019-02-06T15:45:16.655Z,100930.56
2019-02-06T15:47:50.899Z,100924.00
2019-02-06T15:50:31.200Z,100925.21
2019-02-06T15:53:08.755Z,100914.52
2019-02-06T15:55:46.009Z,100914.52
2019-02-06T15:58:22.601Z,100919.86
2019-02-06T16:01:18.743Z,100907.77
2019-02-06T16:04:32.523Z,100910.92
2019-02-06T16:07:12.526Z,100906.89
2019-02-06T16:09:46.540Z,100904.52
2019-02-06T16:12:18.434Z,100896.13
2019-02-06T16:14:58.965Z,100895.09
2019-02-06T16:17:33.386Z,100896.55
2019-02-06T16:20:24.745Z,100898.78
2019-02-06T16:23:04.989Z,100897.38
2019-02-06T16:25:47.886Z,100888.91
2019-02-06T16:28:22.988Z,100888.91
2019-02-06T16:31:09.549Z,100893.12
2019-02-06T16:33:59.499Z,100884.77
2019-02-06T16:36:46.416Z,100885.50
2019-02-06T16:39:43.087Z,100887.64
2019-02-06T16:42:20.817Z,100895.39
2019-02-06T16:45:07.255Z,100886.64
2019-02-06T16:47:45.576Z,100881.23
2019-02-06T16:50:26.648Z,100883.94
2019-02-06T16:53:16.193Z,100885.08
2019-02-06T16:56:07.335Z,100884.05
2019-02-06T16:58:56.735Z,100888.64
2019-02-06T17:02:01.611Z,100886.45
2019-02-06T17:04:35.783Z,100883.19
2019-02-06T17:07:31.472Z,100879.58
2019-02-06T17:10:06.025Z,100874.98
2019-02-06T17:12:44.172Z,100875.38
2019-02-06T17:15:18.392Z,100872.62
2019-02-06T17:17:50.066Z,100871.93
2019-02-06T17:20:42.847Z,100864.51
2019-02-06T17:23:16.897Z,100863.84
2019-02-06T17:26:11.249Z,100856.58
2019-02-06T17:28:48.238Z,100865.45
2019-02-06T17:31:22.490Z,100864.97
2019-02-06T17:33:59.879Z,100869.73
2019-02-06T17:36:36.870Z,100862.85
2019-02-06T17:39:24.497Z,100862.66
2019-02-06T17:42:15.142Z,100852.72
2019-02-06T17:44:53.507Z,100851.19
2019-02-06T17:47:34.272Z,100850.59
2019-02-06T17:50:20.673Z,100848.31
2019-02-06T17:53:04.415Z,100843.72
2019-02-06T17:55:32.741Z,100840.84
2019-02-06T17:58:01.070Z,100832.36
2019-02-06T18:00:32.731Z,100835.39
2019-02-06T18:03:04.751Z,100828.62
2019-02-06T18:05:33.002Z,100826.44
2019-02-06T18:08:01.675Z,100826.82
2019-02-06T18:10:29.924Z,100835.69
2019-02-06T18:12:58.197Z,100837.77
2019-02-06T18:15:26.445Z,100838.05
2019-02-06T18:17:54.997Z,100840.98
2019-02-06T18:20:23.277Z,100839.09
2019-02-06T18:22:51.569Z,100835.47
2019-02-06T18:25:20.490Z,100832.41
2019-02-06T18:27:48.733Z,100833.36
2019-02-06T18:30:22.478Z,100829.74
2019-02-06T18:32:50.896Z,100831.47
2019-02-06T18:35:19.330Z,100826.21
2019-02-06T18:37:49.819Z,100827.16
2019-02-06T18:40:18.481Z,100822.88
2019-02-06T18:42:47.105Z,100829.28
2019-02-06T18:45:17.488Z,100825.28
2019-02-06T18:47:45.944Z,100817.36
2019-02-06T18:50:23.541Z,100819.67
2019-02-06T18:52:51.798Z,100804.13
2019-02-06T18:55:21.313Z,100806.87
2019-02-06T18:57:49.952Z,100804.68
2019-02-06T19:00:24.659Z,100798.98
2019-02-06T19:02:52.989Z,100791.45
2019-02-06T19:05:24.973Z,100793.25
2019-02-06T19:07:53.851Z,100790.59
2019-02-06T19:10:23.834Z,100798.71
2019-02-06T19:12:52.123Z,100796.13
2019-02-06T19:15:20.482Z,100787.77
2019-02-06T19:17:49.893Z,100791.97
2019-02-06T19:20:19.016Z,100786.72
2019-02-06T19:22:47.262Z,100782.91
2019-02-06T19:25:18.651Z,100778.37
2019-02-06T19:27:46.967Z,100775.55
2019-02-06T19:30:27.009Z,100776.81
2019-02-06T19:32:55.799Z,100778.43
2019-02-06T19:35:24.302Z,100769.14
2019-02-06T19:37:52.632Z,100773.73
2019-02-06T19:40:21.523Z,100762.86
2019-02-06T19:42:59.092Z,100770.13
2019-02-06T19:45:19.875Z,100768.24
2019-02-06T19:47:48.201Z,100757.66
2019-02-06T19:50:22.817Z,100762.72
2019-02-06T19:52:51.140Z,100754.36
2019-02-06T19:55:19.392Z,100756.63
2019-02-06T19:57:47.712Z,100755.69
2019-02-06T20:00:21.793Z,100746.36
2019-02-06T20:02:50.088Z,100738.34
2019-02-06T20:05:19.405Z,100739.69
2019-02-06T20:07:47.960Z,100734.43
2019-02-06T20:10:25.174Z,100732.23
2019-02-06T20:12:53.813Z,100737.57
2019-02-06T20:15:22.092Z,100726.55
2019-02-06T20:17:50.902Z,100720.82
2019-02-06T20:20:24.722Z,100727.48
2019-02-06T20:22:52.072Z,100716.94
2019-02-06T20:25:20.429Z,100714.73
2019-02-06T20:27:48.768Z,100716.43
2019-02-06T20:30:32.331Z,100711.09
2019-02-06T20:33:00.576Z,100703.68
2019-02-06T20:35:28.862Z,100704.47
2019-02-06T20:37:57.496Z,100697.41
2019-02-06T20:40:34.183Z,100702.39
2019-02-06T20:43:02.473Z,100701.92
2019-02-06T20:45:31.141Z,100696.58
2019-02-06T20:47:59.490Z,100694.86
2019-02-06T20:50:29.707Z,100691.33
2019-02-06T20:52:58.572Z,100693.05
2019-02-06T20:55:26.839Z,100686.39
2019-02-06T20:57:55.248Z,100681.05
2019-02-06T21:00:28.680Z,100679.25
2019-02-06T21:02:56.923Z,100676.66
2019-02-06T21:05:25.192Z,100678.78
2019-02-06T21:07:53.739Z,100681.18
2019-02-06T21:10:27.484Z,100671.45
2019-02-06T21:12:55.819Z,100671.10
2019-02-06T21:15:24.092Z,100671.58
2019-02-06T21:17:52.439Z,100669.97
2019-02-06T21:20:25.090Z,100669.97
2019-02-06T21:22:53.890Z,100667.03
2019-02-06T21:25:23.788Z,100671.97
2019-02-06T21:27:52.106Z,100666.84
2019-02-06T21:30:29.155Z,100663.42
2019-02-06T21:32:57.621Z,100657.35
2019-02-06T21:35:26.464Z,100646.97
2019-02-06T21:37:55.282Z,100645.95
2019-02-06T21:40:25.852Z,100643.48
2019-02-06T21:42:54.221Z,100646.73
2019-02-06T21:45:22.545Z,100638.94
2019-02-06T21:47:50.874Z,100636.55
2019-02-06T21:50:21.888Z,100632.78
2019-02-06T21:52:50.333Z,100638.19
2019-02-06T21:55:23.110Z,100629.06
2019-02-06T21:57:51.734Z,100622.05
2019-02-06T22:00:28.407Z,100619.07
2019-02-06T22:02:56.676Z,100614.80
2019-02-06T22:05:25.007Z,100610.92
2019-02-06T22:07:53.799Z,100615.00
2019-02-06T22:10:22.813Z,100612.17
2019-02-06T22:12:51.143Z,100607.03
2019-02-06T22:15:22.025Z,100603.63
2019-02-06T22:17:50.330Z,100597.55
2019-02-06T22:20:18.840Z,100599.91
2019-02-06T22:22:47.632Z,100596.03
2019-02-06T22:25:15.966Z,100596.97
2019-02-06T22:27:44.283Z,100598.89
2019-02-06T22:30:17.909Z,100588.81
2019-02-06T22:32:45.661Z,100589.28
2019-02-06T22:35:13.930Z,100583.48
2019-02-06T22:37:42.504Z,100582.73
2019-02-06T22:40:15.641Z,100584.43
2019-02-06T22:42:43.932Z,100587.84
2019-02-06T22:45:24.040Z,100583.38
2019-02-06T22:47:52.316Z,100577.49
2019-02-06T22:50:22.690Z,100574.83
2019-02-06T22:52:50.964Z,100572.91
2019-02-06T22:55:19.217Z,100568.80
2019-02-06T22:57:47.491Z,100563.75
2019-02-06T23:00:48.153Z,100562.69
2019-02-06T23:03:20.048Z,100553.28
2019-02-06T23:05:48.300Z,100554.14
2019-02-06T23:08:16.591Z,100542.78
2019-02-06T23:10:44.915Z,100546.23
2019-02-06T23:13:13.200Z,100534.91
2019-02-06T23:15:41.464Z,100546.11
2019-02-06T23:18:09.745Z,100539.45
2019-02-06T23:20:38.011Z,100539.45
2019-02-06T23:23:06.345Z,100534.12
2019-02-06T23:25:34.666Z,100528.41
2019-02-06T23:28:03.051Z,100523.07
2019-02-06T23:30:31.776Z,100516.06
2019-02-06T23:33:00.066Z,100512.65
2019-02-06T23:35:28.317Z,100508.53
2019-02-06T23:37:56.569Z,100510.81
2019-02-06T23:40:24.852Z,100500.75
2019-02-06T23:42:53.418Z,100494.95
2019-02-06T23:45:22.081Z,100493.22
2019-02-06T23:47:50.357Z,100483.55
2019-02-06T23:50:18.656Z,100485.34
2019-02-06T23:52:46.906Z,100482.56
2019-02-06T23:55:15.182Z,100478.57
2019-02-06T23:57:43.432Z,100466.58
